sensor_id;sensor_type;location;lat;lon;timestamp;temperature;humidity
20672;DHT22;10495;50.922;4.760;2023-04-28T00:02:01;12.70;70.10
20672;DHT22;10495;50.922;4.760;2023-04-28T00:04:28;12.70;71.60
20672;DHT22;10495;50.922;4.760;2023-04-28T00:06:53;12.70;73.10
20672;DHT22;10495;50.922;4.760;2023-04-28T00:09:19;12.50;76.10
20672;DHT22;10495;50.922;4.760;2023-04-28T00:11:45;12.60;75.50
20672;DHT22;10495;50.922;4.760;2023-04-28T00:14:11;12.90;75.10
20672;DHT22;10495;50.922;4.760;2023-04-28T00:16:37;13.20;75.00
20672;DHT22;10495;50.922;4.760;2023-04-28T00:19:03;13.20;75.60
20672;DHT22;10495;50.922;4.760;2023-04-28T00:21:28;13.10;76.20
20672;DHT22;10495;50.922;4.760;2023-04-28T00:23:54;13.00;76.30
20672;DHT22;10495;50.922;4.760;2023-04-28T00:26:20;12.80;75.60
20672;DHT22;10495;50.922;4.760;2023-04-28T00:28:45;12.60;75.90
20672;DHT22;10495;50.922;4.760;2023-04-28T00:31:12;12.20;77.10
20672;DHT22;10495;50.922;4.760;2023-04-28T00:33:39;11.60;78.90
20672;DHT22;10495;50.922;4.760;2023-04-28T00:36:05;11.40;80.80
20672;DHT22;10495;50.922;4.760;2023-04-28T00:38:31;11.20;82.30
20672;DHT22;10495;50.922;4.760;2023-04-28T00:40:57;11.30;83.10
20672;DHT22;10495;50.922;4.760;2023-04-28T00:43:22;11.50;83.40
20672;DHT22;10495;50.922;4.760;2023-04-28T00:45:48;11.30;83.80
20672;DHT22;10495;50.922;4.760;2023-04-28T00:48:15;11.50;84.10
20672;DHT22;10495;50.922;4.760;2023-04-28T00:50:42;11.70;83.80
20672;DHT22;10495;50.922;4.760;2023-04-28T00:53:10;11.60;83.50
20672;DHT22;10495;50.922;4.760;2023-04-28T00:55:36;11.80;83.50
20672;DHT22;10495;50.922;4.760;2023-04-28T00:58:02;11.90;83.50
20672;DHT22;10495;50.922;4.760;2023-04-28T01:00:29;11.70;83.80
20672;DHT22;10495;50.922;4.760;2023-04-28T01:02:56;11.60;84.50
20672;DHT22;10495;50.922;4.760;2023-04-28T01:05:24;11.50;84.60
20672;DHT22;10495;50.922;4.760;2023-04-28T01:07:50;11.50;85.00
20672;DHT22;10495;50.922;4.760;2023-04-28T01:10:15;11.40;85.20
20672;DHT22;10495;50.922;4.760;2023-04-28T01:12:41;11.30;85.60
20672;DHT22;10495;50.922;4.760;2023-04-28T01:15:14;11.20;86.20
20672;DHT22;10495;50.922;4.760;2023-04-28T01:17:40;11.20;87.10
20672;DHT22;10495;50.922;4.760;2023-04-28T01:20:06;11.10;87.50
20672;DHT22;10495;50.922;4.760;2023-04-28T01:22:32;11.10;87.20
20672;DHT22;10495;50.922;4.760;2023-04-28T01:24:58;11.20;87.20
20672;DHT22;10495;50.922;4.760;2023-04-28T01:27:25;11.20;86.80
20672;DHT22;10495;50.922;4.760;2023-04-28T01:29:51;11.30;86.50
20672;DHT22;10495;50.922;4.760;2023-04-28T01:32:16;11.30;86.60
20672;DHT22;10495;50.922;4.760;2023-04-28T01:34:42;11.40;86.60
20672;DHT22;10495;50.922;4.760;2023-04-28T01:37:07;11.70;85.70
20672;DHT22;10495;50.922;4.760;2023-04-28T01:39:33;11.80;85.10
20672;DHT22;10495;50.922;4.760;2023-04-28T01:41:59;11.80;84.80
20672;DHT22;10495;50.922;4.760;2023-04-28T01:44:26;11.90;85.20
20672;DHT22;10495;50.922;4.760;2023-04-28T01:46:51;11.90;84.50
20672;DHT22;10495;50.922;4.760;2023-04-28T01:49:17;11.90;84.70
20672;DHT22;10495;50.922;4.760;2023-04-28T01:51:43;11.80;85.30
20672;DHT22;10495;50.922;4.760;2023-04-28T01:54:08;11.70;86.50
20672;DHT22;10495;50.922;4.760;2023-04-28T01:56:34;11.60;86.80
20672;DHT22;10495;50.922;4.760;2023-04-28T01:59:00;11.80;86.60
20672;DHT22;10495;50.922;4.760;2023-04-28T02:01:26;12.10;85.50
20672;DHT22;10495;50.922;4.760;2023-04-28T02:03:51;12.40;84.30
20672;DHT22;10495;50.922;4.760;2023-04-28T02:06:19;12.10;84.60
20672;DHT22;10495;50.922;4.760;2023-04-28T02:08:44;12.20;84.30
20672;DHT22;10495;50.922;4.760;2023-04-28T02:11:10;12.40;83.60
20672;DHT22;10495;50.922;4.760;2023-04-28T02:13:36;12.30;83.40
20672;DHT22;10495;50.922;4.760;2023-04-28T02:16:01;12.40;83.60
20672;DHT22;10495;50.922;4.760;2023-04-28T02:18:27;12.30;83.80
20672;DHT22;10495;50.922;4.760;2023-04-28T02:20:53;12.20;84.60
20672;DHT22;10495;50.922;4.760;2023-04-28T02:23:18;12.20;84.60
20672;DHT22;10495;50.922;4.760;2023-04-28T02:25:44;12.10;85.00
20672;DHT22;10495;50.922;4.760;2023-04-28T02:28:10;12.00;86.20
20672;DHT22;10495;50.922;4.760;2023-04-28T02:30:35;11.80;87.90
20672;DHT22;10495;50.922;4.760;2023-04-28T02:33:01;11.30;89.50
20672;DHT22;10495;50.922;4.760;2023-04-28T02:35:27;10.90;90.60
20672;DHT22;10495;50.922;4.760;2023-04-28T02:37:52;10.70;91.10
20672;DHT22;10495;50.922;4.760;2023-04-28T02:40:18;10.40;91.50
20672;DHT22;10495;50.922;4.760;2023-04-28T02:42:44;10.20;92.10
20672;DHT22;10495;50.922;4.760;2023-04-28T02:45:10;10.10;92.50
20672;DHT22;10495;50.922;4.760;2023-04-28T02:47:36;10.20;92.70
20672;DHT22;10495;50.922;4.760;2023-04-28T02:50:01;10.50;92.20
20672;DHT22;10495;50.922;4.760;2023-04-28T02:52:27;10.60;92.00
20672;DHT22;10495;50.922;4.760;2023-04-28T02:54:53;10.60;92.10
20672;DHT22;10495;50.922;4.760;2023-04-28T02:57:21;10.70;92.30
20672;DHT22;10495;50.922;4.760;2023-04-28T02:59:47;10.70;92.40
20672;DHT22;10495;50.922;4.760;2023-04-28T03:02:13;10.70;92.20
20672;DHT22;10495;50.922;4.760;2023-04-28T03:04:39;10.90;92.30
20672;DHT22;10495;50.922;4.760;2023-04-28T03:07:05;11.10;92.00
20672;DHT22;10495;50.922;4.760;2023-04-28T03:09:30;11.20;91.80
20672;DHT22;10495;50.922;4.760;2023-04-28T03:11:56;11.30;91.50
20672;DHT22;10495;50.922;4.760;2023-04-28T03:14:22;11.20;91.80
20672;DHT22;10495;50.922;4.760;2023-04-28T03:16:47;11.20;91.80
20672;DHT22;10495;50.922;4.760;2023-04-28T03:19:13;11.10;91.70
20672;DHT22;10495;50.922;4.760;2023-04-28T03:21:38;11.00;92.00
20672;DHT22;10495;50.922;4.760;2023-04-28T03:24:05;11.10;92.00
20672;DHT22;10495;50.922;4.760;2023-04-28T03:26:31;11.30;91.60
20672;DHT22;10495;50.922;4.760;2023-04-28T03:28:56;11.20;91.60
20672;DHT22;10495;50.922;4.760;2023-04-28T03:31:22;11.20;91.80
20672;DHT22;10495;50.922;4.760;2023-04-28T03:33:48;11.50;91.40
20672;DHT22;10495;50.922;4.760;2023-04-28T03:36:14;11.20;91.60
20672;DHT22;10495;50.922;4.760;2023-04-28T03:38:40;11.10;91.90
20672;DHT22;10495;50.922;4.760;2023-04-28T03:41:06;11.40;91.40
20672;DHT22;10495;50.922;4.760;2023-04-28T03:43:32;11.50;91.40
20672;DHT22;10495;50.922;4.760;2023-04-28T03:45:59;11.30;91.60
20672;DHT22;10495;50.922;4.760;2023-04-28T03:48:25;11.70;90.90
20672;DHT22;10495;50.922;4.760;2023-04-28T03:50:51;11.80;90.80
20672;DHT22;10495;50.922;4.760;2023-04-28T03:53:17;11.60;91.00
20672;DHT22;10495;50.922;4.760;2023-04-28T03:55:43;11.40;91.30
20672;DHT22;10495;50.922;4.760;2023-04-28T03:58:08;11.50;91.50
20672;DHT22;10495;50.922;4.760;2023-04-28T04:00:34;11.60;91.20
20672;DHT22;10495;50.922;4.760;2023-04-28T04:02:59;11.70;91.20
20672;DHT22;10495;50.922;4.760;2023-04-28T04:05:26;11.70;91.20
20672;DHT22;10495;50.922;4.760;2023-04-28T04:07:51;11.60;91.30
20672;DHT22;10495;50.922;4.760;2023-04-28T04:10:17;12.00;90.70
20672;DHT22;10495;50.922;4.760;2023-04-28T04:12:43;12.20;90.30
20672;DHT22;10495;50.922;4.760;2023-04-28T04:15:08;12.00;90.60
20672;DHT22;10495;50.922;4.760;2023-04-28T04:17:34;12.00;90.70
20672;DHT22;10495;50.922;4.760;2023-04-28T04:20:00;12.00;90.60
20672;DHT22;10495;50.922;4.760;2023-04-28T04:22:25;12.10;90.50
20672;DHT22;10495;50.922;4.760;2023-04-28T04:24:51;11.90;90.80
20672;DHT22;10495;50.922;4.760;2023-04-28T04:27:17;11.70;91.20
20672;DHT22;10495;50.922;4.760;2023-04-28T04:29:43;11.40;91.70
20672;DHT22;10495;50.922;4.760;2023-04-28T04:32:09;11.40;92.00
20672;DHT22;10495;50.922;4.760;2023-04-28T04:34:35;11.30;92.20
20672;DHT22;10495;50.922;4.760;2023-04-28T04:37:01;11.40;92.10
20672;DHT22;10495;50.922;4.760;2023-04-28T04:39:26;11.20;92.40
20672;DHT22;10495;50.922;4.760;2023-04-28T04:41:52;11.20;92.30
20672;DHT22;10495;50.922;4.760;2023-04-28T04:44:18;11.30;92.40
20672;DHT22;10495;50.922;4.760;2023-04-28T04:46:44;11.60;92.20
20672;DHT22;10495;50.922;4.760;2023-04-28T04:49:10;11.70;91.90
20672;DHT22;10495;50.922;4.760;2023-04-28T04:51:36;11.60;92.00
20672;DHT22;10495;50.922;4.760;2023-04-28T04:54:02;11.40;92.40
20672;DHT22;10495;50.922;4.760;2023-04-28T04:56:28;11.50;92.40
20672;DHT22;10495;50.922;4.760;2023-04-28T04:58:53;11.50;92.50
20672;DHT22;10495;50.922;4.760;2023-04-28T05:01:19;11.70;92.30
20672;DHT22;10495;50.922;4.760;2023-04-28T05:03:44;11.60;92.40
20672;DHT22;10495;50.922;4.760;2023-04-28T05:06:10;11.60;92.60
20672;DHT22;10495;50.922;4.760;2023-04-28T05:08:36;11.50;92.90
20672;DHT22;10495;50.922;4.760;2023-04-28T05:11:02;11.60;93.00
20672;DHT22;10495;50.922;4.760;2023-04-28T05:13:27;11.80;92.80
20672;DHT22;10495;50.922;4.760;2023-04-28T05:15:53;11.90;92.70
20672;DHT22;10495;50.922;4.760;2023-04-28T05:18:18;11.80;92.70
20672;DHT22;10495;50.922;4.760;2023-04-28T05:20:44;11.80;92.90
20672;DHT22;10495;50.922;4.760;2023-04-28T05:23:10;12.00;92.70
20672;DHT22;10495;50.922;4.760;2023-04-28T05:25:35;12.50;91.60
20672;DHT22;10495;50.922;4.760;2023-04-28T05:28:01;12.50;91.50
20672;DHT22;10495;50.922;4.760;2023-04-28T05:30:32;12.30;91.90
20672;DHT22;10495;50.922;4.760;2023-04-28T05:32:57;12.10;92.20
20672;DHT22;10495;50.922;4.760;2023-04-28T05:35:23;12.00;92.80
20672;DHT22;10495;50.922;4.760;2023-04-28T05:37:49;11.90;93.00
20672;DHT22;10495;50.922;4.760;2023-04-28T05:40:14;12.00;93.00
20672;DHT22;10495;50.922;4.760;2023-04-28T05:42:40;12.00;93.00
20672;DHT22;10495;50.922;4.760;2023-04-28T05:45:06;12.10;93.30
20672;DHT22;10495;50.922;4.760;2023-04-28T05:47:32;12.10;93.20
20672;DHT22;10495;50.922;4.760;2023-04-28T05:49:58;12.20;93.00
20672;DHT22;10495;50.922;4.760;2023-04-28T05:52:23;12.50;92.40
20672;DHT22;10495;50.922;4.760;2023-04-28T05:54:49;12.70;91.90
20672;DHT22;10495;50.922;4.760;2023-04-28T05:57:15;12.90;91.80
20672;DHT22;10495;50.922;4.760;2023-04-28T05:59:40;12.70;92.10
20672;DHT22;10495;50.922;4.760;2023-04-28T06:02:06;12.90;92.00
20672;DHT22;10495;50.922;4.760;2023-04-28T06:04:32;12.80;92.30
20672;DHT22;10495;50.922;4.760;2023-04-28T06:06:57;12.80;92.70
20672;DHT22;10495;50.922;4.760;2023-04-28T06:09:23;13.00;92.50
20672;DHT22;10495;50.922;4.760;2023-04-28T06:11:49;12.90;92.70
20672;DHT22;10495;50.922;4.760;2023-04-28T06:14:15;12.90;92.70
20672;DHT22;10495;50.922;4.760;2023-04-28T06:16:41;12.80;93.20
20672;DHT22;10495;50.922;4.760;2023-04-28T06:19:06;12.80;93.40
20672;DHT22;10495;50.922;4.760;2023-04-28T06:21:32;12.80;93.50
20672;DHT22;10495;50.922;4.760;2023-04-28T06:23:57;13.00;93.50
20672;DHT22;10495;50.922;4.760;2023-04-28T06:26:23;13.10;93.40
20672;DHT22;10495;50.922;4.760;2023-04-28T06:28:49;13.10;93.60
20672;DHT22;10495;50.922;4.760;2023-04-28T06:31:15;13.30;93.60
20672;DHT22;10495;50.922;4.760;2023-04-28T06:33:41;13.30;93.60
20672;DHT22;10495;50.922;4.760;2023-04-28T06:36:07;13.30;94.00
20672;DHT22;10495;50.922;4.760;2023-04-28T06:38:32;13.50;93.80
20672;DHT22;10495;50.922;4.760;2023-04-28T06:40:58;13.60;93.90
20672;DHT22;10495;50.922;4.760;2023-04-28T06:43:24;13.60;94.00
20672;DHT22;10495;50.922;4.760;2023-04-28T06:45:49;13.60;94.10
20672;DHT22;10495;50.922;4.760;2023-04-28T06:48:15;13.70;94.20
20672;DHT22;10495;50.922;4.760;2023-04-28T06:50:41;13.80;94.40
20672;DHT22;10495;50.922;4.760;2023-04-28T06:53:07;13.90;94.30
20672;DHT22;10495;50.922;4.760;2023-04-28T06:55:34;14.00;94.50
20672;DHT22;10495;50.922;4.760;2023-04-28T06:58:00;14.20;94.50
20672;DHT22;10495;50.922;4.760;2023-04-28T07:00:25;14.40;94.10
20672;DHT22;10495;50.922;4.760;2023-04-28T07:02:51;14.40;94.50
20672;DHT22;10495;50.922;4.760;2023-04-28T07:05:17;14.50;94.80
20672;DHT22;10495;50.922;4.760;2023-04-28T07:07:42;14.60;94.90
20672;DHT22;10495;50.922;4.760;2023-04-28T07:10:08;14.60;95.10
20672;DHT22;10495;50.922;4.760;2023-04-28T07:12:35;14.70;95.10
20672;DHT22;10495;50.922;4.760;2023-04-28T07:15:01;14.80;94.90
20672;DHT22;10495;50.922;4.760;2023-04-28T07:17:27;14.90;94.90
20672;DHT22;10495;50.922;4.760;2023-04-28T07:19:52;15.00;95.00
20672;DHT22;10495;50.922;4.760;2023-04-28T07:22:18;15.20;95.00
20672;DHT22;10495;50.922;4.760;2023-04-28T07:24:43;15.40;94.90
20672;DHT22;10495;50.922;4.760;2023-04-28T07:27:09;15.50;94.80
20672;DHT22;10495;50.922;4.760;2023-04-28T07:29:35;15.60;94.70
20672;DHT22;10495;50.922;4.760;2023-04-28T07:32:01;15.70;94.50
20672;DHT22;10495;50.922;4.760;2023-04-28T07:34:28;15.60;94.40
20672;DHT22;10495;50.922;4.760;2023-04-28T07:36:54;15.60;94.60
20672;DHT22;10495;50.922;4.760;2023-04-28T07:39:20;15.90;94.40
20672;DHT22;10495;50.922;4.760;2023-04-28T07:41:46;16.00;94.20
20672;DHT22;10495;50.922;4.760;2023-04-28T07:44:12;16.20;94.10
20672;DHT22;10495;50.922;4.760;2023-04-28T07:46:37;16.30;93.80
20672;DHT22;10495;50.922;4.760;2023-04-28T07:49:03;16.40;93.50
20672;DHT22;10495;50.922;4.760;2023-04-28T07:51:29;16.60;93.20
20672;DHT22;10495;50.922;4.760;2023-04-28T07:53:55;16.60;93.00
20672;DHT22;10495;50.922;4.760;2023-04-28T07:56:21;16.60;93.00
20672;DHT22;10495;50.922;4.760;2023-04-28T07:58:47;16.50;92.90
20672;DHT22;10495;50.922;4.760;2023-04-28T08:01:13;16.60;92.80
20672;DHT22;10495;50.922;4.760;2023-04-28T08:03:38;16.40;93.40
20672;DHT22;10495;50.922;4.760;2023-04-28T08:06:04;16.40;93.30
20672;DHT22;10495;50.922;4.760;2023-04-28T08:08:30;16.40;93.50
20672;DHT22;10495;50.922;4.760;2023-04-28T08:10:56;16.50;93.50
20672;DHT22;10495;50.922;4.760;2023-04-28T08:13:23;16.50;93.90
20672;DHT22;10495;50.922;4.760;2023-04-28T08:15:48;16.80;95.20
20672;DHT22;10495;50.922;4.760;2023-04-28T08:18:15;17.60;95.60
20672;DHT22;10495;50.922;4.760;2023-04-28T08:20:40;18.50;94.50
20672;DHT22;10495;50.922;4.760;2023-04-28T08:23:07;19.20;94.40
20672;DHT22;10495;50.922;4.760;2023-04-28T08:25:33;19.90;92.30
20672;DHT22;10495;50.922;4.760;2023-04-28T08:27:58;20.00;91.70
20672;DHT22;10495;50.922;4.760;2023-04-28T08:30:24;20.10;90.50
20672;DHT22;10495;50.922;4.760;2023-04-28T08:32:50;20.10;90.20
20672;DHT22;10495;50.922;4.760;2023-04-28T08:35:15;19.90;89.90
20672;DHT22;10495;50.922;4.760;2023-04-28T08:37:41;19.70;88.90
20672;DHT22;10495;50.922;4.760;2023-04-28T08:40:08;19.50;89.90
20672;DHT22;10495;50.922;4.760;2023-04-28T08:42:35;19.20;89.10
20672;DHT22;10495;50.922;4.760;2023-04-28T08:45:03;19.10;88.50
20672;DHT22;10495;50.922;4.760;2023-04-28T08:47:38;18.90;89.50
20672;DHT22;10495;50.922;4.760;2023-04-28T08:50:14;18.60;90.30
20672;DHT22;10495;50.922;4.760;2023-04-28T08:52:41;18.60;90.40
20672;DHT22;10495;50.922;4.760;2023-04-28T08:55:08;18.60;90.40
20672;DHT22;10495;50.922;4.760;2023-04-28T08:57:41;18.70;90.00
20672;DHT22;10495;50.922;4.760;2023-04-28T09:00:07;18.60;90.10
20672;DHT22;10495;50.922;4.760;2023-04-28T09:02:33;18.60;90.20
20672;DHT22;10495;50.922;4.760;2023-04-28T09:05:02;18.40;90.30
20672;DHT22;10495;50.922;4.760;2023-04-28T09:07:29;18.40;90.40
20672;DHT22;10495;50.922;4.760;2023-04-28T09:10:20;18.30;90.30
20672;DHT22;10495;50.922;4.760;2023-04-28T09:12:47;18.30;90.60
20672;DHT22;10495;50.922;4.760;2023-04-28T09:15:37;18.60;90.60
20672;DHT22;10495;50.922;4.760;2023-04-28T09:18:06;18.70;90.40
20672;DHT22;10495;50.922;4.760;2023-04-28T09:20:33;18.80;90.10
20672;DHT22;10495;50.922;4.760;2023-04-28T09:26:04;19.00;89.90
20672;DHT22;10495;50.922;4.760;2023-04-28T09:28:33;19.10;88.20
20672;DHT22;10495;50.922;4.760;2023-04-28T09:30:59;19.10;87.90
20672;DHT22;10495;50.922;4.760;2023-04-28T09:33:25;18.80;88.70
20672;DHT22;10495;50.922;4.760;2023-04-28T09:35:52;18.80;88.70
20672;DHT22;10495;50.922;4.760;2023-04-28T09:38:19;18.60;89.10
20672;DHT22;10495;50.922;4.760;2023-04-28T09:43:32;18.70;88.60
20672;DHT22;10495;50.922;4.760;2023-04-28T09:46:03;18.80;88.30
20672;DHT22;10495;50.922;4.760;2023-04-28T09:48:31;18.80;88.30
20672;DHT22;10495;50.922;4.760;2023-04-28T09:50:58;18.90;87.90
20672;DHT22;10495;50.922;4.760;2023-04-28T09:53:25;19.00;88.40
20672;DHT22;10495;50.922;4.760;2023-04-28T09:55:52;19.10;87.90
20672;DHT22;10495;50.922;4.760;2023-04-28T09:58:19;19.20;87.90
20672;DHT22;10495;50.922;4.760;2023-04-28T10:00:53;19.40;87.30
20672;DHT22;10495;50.922;4.760;2023-04-28T10:03:24;19.50;86.50
20672;DHT22;10495;50.922;4.760;2023-04-28T10:05:51;19.60;85.60
20672;DHT22;10495;50.922;4.760;2023-04-28T10:08:19;19.70;84.70
20672;DHT22;10495;50.922;4.760;2023-04-28T10:10:49;19.60;85.40
20672;DHT22;10495;50.922;4.760;2023-04-28T10:13:18;19.80;85.70
20672;DHT22;10495;50.922;4.760;2023-04-28T10:15:44;20.10;84.10
20672;DHT22;10495;50.922;4.760;2023-04-28T10:18:11;20.30;83.80
20672;DHT22;10495;50.922;4.760;2023-04-28T10:20:39;20.30;83.50
20672;DHT22;10495;50.922;4.760;2023-04-28T10:26:10;20.30;83.30
20672;DHT22;10495;50.922;4.760;2023-04-28T10:28:43;20.20;83.40
20672;DHT22;10495;50.922;4.760;2023-04-28T10:31:18;20.30;83.40
20672;DHT22;10495;50.922;4.760;2023-04-28T10:33:45;20.40;83.40
20672;DHT22;10495;50.922;4.760;2023-04-28T10:36:50;20.40;82.80
20672;DHT22;10495;50.922;4.760;2023-04-28T10:39:20;20.60;82.10
20672;DHT22;10495;50.922;4.760;2023-04-28T10:41:46;20.50;82.90
20672;DHT22;10495;50.922;4.760;2023-04-28T10:47:04;20.70;81.30
20672;DHT22;10495;50.922;4.760;2023-04-28T10:58:29;20.70;79.30
20672;DHT22;10495;50.922;4.760;2023-04-28T11:06:29;20.80;78.30
20672;DHT22;10495;50.922;4.760;2023-04-28T11:08:58;20.70;78.40
20672;DHT22;10495;50.922;4.760;2023-04-28T11:11:31;20.70;79.30
20672;DHT22;10495;50.922;4.760;2023-04-28T11:19:23;20.70;79.50
20672;DHT22;10495;50.922;4.760;2023-04-28T11:21:49;20.60;80.10
20672;DHT22;10495;50.922;4.760;2023-04-28T11:24:16;20.50;78.70
20672;DHT22;10495;50.922;4.760;2023-04-28T11:26:42;20.50;78.80
20672;DHT22;10495;50.922;4.760;2023-04-28T11:29:09;20.60;79.20
20672;DHT22;10495;50.922;4.760;2023-04-28T11:31:35;20.80;78.00
20672;DHT22;10495;50.922;4.760;2023-04-28T11:34:06;20.80;77.70
20672;DHT22;10495;50.922;4.760;2023-04-28T11:36:37;20.70;78.70
20672;DHT22;10495;50.922;4.760;2023-04-28T11:39:08;20.80;79.00
20672;DHT22;10495;50.922;4.760;2023-04-28T11:41:36;20.90;78.20
20672;DHT22;10495;50.922;4.760;2023-04-28T11:46:35;20.70;77.30
20672;DHT22;10495;50.922;4.760;2023-04-28T11:49:04;20.70;78.20
20672;DHT22;10495;50.922;4.760;2023-04-28T11:51:36;20.50;77.10
20672;DHT22;10495;50.922;4.760;2023-04-28T11:54:04;20.50;78.50
20672;DHT22;10495;50.922;4.760;2023-04-28T11:56:36;20.50;77.90
20672;DHT22;10495;50.922;4.760;2023-04-28T11:59:07;20.30;78.20
20672;DHT22;10495;50.922;4.760;2023-04-28T12:01:42;20.20;77.50
20672;DHT22;10495;50.922;4.760;2023-04-28T12:04:08;20.20;78.70
20672;DHT22;10495;50.922;4.760;2023-04-28T12:06:34;20.10;78.80
20672;DHT22;10495;50.922;4.760;2023-04-28T12:09:00;20.00;78.30
20672;DHT22;10495;50.922;4.760;2023-04-28T12:11:29;19.80;79.00
20672;DHT22;10495;50.922;4.760;2023-04-28T12:14:13;19.70;79.50
20672;DHT22;10495;50.922;4.760;2023-04-28T12:16:43;19.60;80.00
20672;DHT22;10495;50.922;4.760;2023-04-28T12:19:12;19.40;80.40
20672;DHT22;10495;50.922;4.760;2023-04-28T12:21:39;19.30;81.10
20672;DHT22;10495;50.922;4.760;2023-04-28T12:24:16;19.10;80.70
20672;DHT22;10495;50.922;4.760;2023-04-28T12:26:46;19.00;81.40
20672;DHT22;10495;50.922;4.760;2023-04-28T12:29:38;19.00;81.00
20672;DHT22;10495;50.922;4.760;2023-04-28T12:32:09;19.10;80.70
20672;DHT22;10495;50.922;4.760;2023-04-28T12:34:37;18.90;81.20
20672;DHT22;10495;50.922;4.760;2023-04-28T12:37:06;18.90;81.30
20672;DHT22;10495;50.922;4.760;2023-04-28T12:39:40;18.60;82.10
20672;DHT22;10495;50.922;4.760;2023-04-28T12:42:16;18.40;81.80
20672;DHT22;10495;50.922;4.760;2023-04-28T12:44:42;18.40;82.80
20672;DHT22;10495;50.922;4.760;2023-04-28T12:47:09;18.50;81.60
20672;DHT22;10495;50.922;4.760;2023-04-28T12:49:37;18.50;80.90
20672;DHT22;10495;50.922;4.760;2023-04-28T12:52:08;18.50;80.80
20672;DHT22;10495;50.922;4.760;2023-04-28T12:54:35;18.40;80.90
20672;DHT22;10495;50.922;4.760;2023-04-28T12:57:04;18.40;81.20
20672;DHT22;10495;50.922;4.760;2023-04-28T13:00:00;18.50;81.20
20672;DHT22;10495;50.922;4.760;2023-04-28T13:02:48;18.60;80.10
20672;DHT22;10495;50.922;4.760;2023-04-28T13:05:14;18.60;80.30
20672;DHT22;10495;50.922;4.760;2023-04-28T13:07:40;18.60;80.40
20672;DHT22;10495;50.922;4.760;2023-04-28T13:10:07;18.50;80.90
20672;DHT22;10495;50.922;4.760;2023-04-28T13:12:33;18.60;81.00
20672;DHT22;10495;50.922;4.760;2023-04-28T13:15:02;18.50;81.30
20672;DHT22;10495;50.922;4.760;2023-04-28T13:17:31;18.50;81.50
20672;DHT22;10495;50.922;4.760;2023-04-28T13:19:59;18.60;81.20
20672;DHT22;10495;50.922;4.760;2023-04-28T13:22:32;18.60;81.00
20672;DHT22;10495;50.922;4.760;2023-04-28T13:24:58;18.60;81.10
20672;DHT22;10495;50.922;4.760;2023-04-28T13:27:25;18.50;80.90
20672;DHT22;10495;50.922;4.760;2023-04-28T13:29:51;18.40;81.60
20672;DHT22;10495;50.922;4.760;2023-04-28T13:32:17;18.40;82.00
20672;DHT22;10495;50.922;4.760;2023-04-28T13:34:42;18.30;81.80
20672;DHT22;10495;50.922;4.760;2023-04-28T13:37:09;18.50;81.40
20672;DHT22;10495;50.922;4.760;2023-04-28T13:39:34;18.70;80.30
20672;DHT22;10495;50.922;4.760;2023-04-28T13:42:00;18.40;80.50
20672;DHT22;10495;50.922;4.760;2023-04-28T13:44:26;18.40;80.70
20672;DHT22;10495;50.922;4.760;2023-04-28T13:46:52;18.40;79.70
20672;DHT22;10495;50.922;4.760;2023-04-28T13:49:18;18.50;80.50
20672;DHT22;10495;50.922;4.760;2023-04-28T13:51:44;18.50;79.70
20672;DHT22;10495;50.922;4.760;2023-04-28T13:54:10;18.50;79.60
20672;DHT22;10495;50.922;4.760;2023-04-28T13:56:36;18.70;78.90
20672;DHT22;10495;50.922;4.760;2023-04-28T13:59:02;18.80;78.60
20672;DHT22;10495;50.922;4.760;2023-04-28T14:01:29;18.80;78.80
20672;DHT22;10495;50.922;4.760;2023-04-28T14:03:55;18.60;79.00
20672;DHT22;10495;50.922;4.760;2023-04-28T14:06:21;18.40;79.50
20672;DHT22;10495;50.922;4.760;2023-04-28T14:08:47;18.40;80.10
20672;DHT22;10495;50.922;4.760;2023-04-28T14:11:13;18.30;80.50
20672;DHT22;10495;50.922;4.760;2023-04-28T14:13:41;18.50;79.90
20672;DHT22;10495;50.922;4.760;2023-04-28T14:16:11;18.60;79.30
20672;DHT22;10495;50.922;4.760;2023-04-28T14:18:36;18.60;79.20
20672;DHT22;10495;50.922;4.760;2023-04-28T14:21:02;18.70;78.50
20672;DHT22;10495;50.922;4.760;2023-04-28T14:23:32;18.70;78.90
20672;DHT22;10495;50.922;4.760;2023-04-28T14:25:58;18.70;79.00
20672;DHT22;10495;50.922;4.760;2023-04-28T14:28:23;18.60;79.50
20672;DHT22;10495;50.922;4.760;2023-04-28T14:30:49;18.50;79.20
20672;DHT22;10495;50.922;4.760;2023-04-28T14:33:15;18.50;79.00
20672;DHT22;10495;50.922;4.760;2023-04-28T14:35:41;18.50;78.30
20672;DHT22;10495;50.922;4.760;2023-04-28T14:38:06;18.40;79.20
20672;DHT22;10495;50.922;4.760;2023-04-28T14:40:32;18.40;79.30
20672;DHT22;10495;50.922;4.760;2023-04-28T14:42:57;18.40;79.20
20672;DHT22;10495;50.922;4.760;2023-04-28T14:45:23;18.40;78.80
20672;DHT22;10495;50.922;4.760;2023-04-28T14:47:49;18.40;79.30
20672;DHT22;10495;50.922;4.760;2023-04-28T14:50:15;18.50;80.00
20672;DHT22;10495;50.922;4.760;2023-04-28T14:52:41;18.40;80.00
20672;DHT22;10495;50.922;4.760;2023-04-28T14:55:07;18.50;80.10
20672;DHT22;10495;50.922;4.760;2023-04-28T14:57:33;18.50;79.90
20672;DHT22;10495;50.922;4.760;2023-04-28T14:59:59;18.70;79.50
20672;DHT22;10495;50.922;4.760;2023-04-28T15:02:25;18.70;79.40
20672;DHT22;10495;50.922;4.760;2023-04-28T15:04:56;18.60;79.60
20672;DHT22;10495;50.922;4.760;2023-04-28T15:07:21;18.60;79.80
20672;DHT22;10495;50.922;4.760;2023-04-28T15:09:48;18.60;80.50
20672;DHT22;10495;50.922;4.760;2023-04-28T15:12:13;18.70;80.60
20672;DHT22;10495;50.922;4.760;2023-04-28T15:14:39;18.60;80.50
20672;DHT22;10495;50.922;4.760;2023-04-28T15:17:05;18.40;80.10
20672;DHT22;10495;50.922;4.760;2023-04-28T15:19:30;18.40;80.50
20672;DHT22;10495;50.922;4.760;2023-04-28T15:21:56;18.30;80.80
20672;DHT22;10495;50.922;4.760;2023-04-28T15:24:22;18.50;80.60
20672;DHT22;10495;50.922;4.760;2023-04-28T15:26:48;18.50;80.50
20672;DHT22;10495;50.922;4.760;2023-04-28T15:29:14;18.50;80.70
20672;DHT22;10495;50.922;4.760;2023-04-28T15:31:40;18.50;81.00
20672;DHT22;10495;50.922;4.760;2023-04-28T15:34:06;18.70;80.70
20672;DHT22;10495;50.922;4.760;2023-04-28T15:36:36;18.60;81.20
20672;DHT22;10495;50.922;4.760;2023-04-28T15:39:02;18.60;81.30
20672;DHT22;10495;50.922;4.760;2023-04-28T15:41:28;18.60;81.60
20672;DHT22;10495;50.922;4.760;2023-04-28T15:43:54;18.70;80.60
20672;DHT22;10495;50.922;4.760;2023-04-28T15:46:20;18.90;79.90
20672;DHT22;10495;50.922;4.760;2023-04-28T15:48:46;18.90;80.00
20672;DHT22;10495;50.922;4.760;2023-04-28T15:51:12;18.70;79.90
20672;DHT22;10495;50.922;4.760;2023-04-28T15:53:38;18.90;80.10
20672;DHT22;10495;50.922;4.760;2023-04-28T15:56:04;18.90;80.40
20672;DHT22;10495;50.922;4.760;2023-04-28T15:58:30;18.70;80.30
20672;DHT22;10495;50.922;4.760;2023-04-28T16:00:56;18.70;80.40
20672;DHT22;10495;50.922;4.760;2023-04-28T16:03:24;18.70;79.90